Time;durP1;ratioP1;P1;durP2;ratioP2;P2;SDS_P1;SDS_P2;PMS_P1;PMS_P2;Temp;Humidity;BMP_temperature;BMP_pressure;BME280_temperature;BME280_humidity;BME280_pressure;Samples;Min_cycle;Max_cycle;Signal;HPM_P1;HPM_P2
2022/07/11 00:00:59;;;;;;;8.20;2.53;;;15.90;99.90;;;;;;4977139;28;20060;-65
2022/07/11 00:03:25;;;;;;;4.63;2.75;;;15.90;99.90;;;;;;4982351;28;20068;-64
2022/07/11 00:05:51;;;;;;;7.03;2.75;;;15.90;99.90;;;;;;4980708;28;20054;-63
2022/07/11 00:08:17;;;;;;;4.90;2.60;;;15.90;99.90;;;;;;4995193;28;20054;-63
2022/07/11 00:10:43;;;;;;;5.75;3.00;;;15.90;99.90;;;;;;4995584;28;20034;-63
2022/07/11 00:13:09;;;;;;;5.28;2.85;;;15.90;99.90;;;;;;4977743;28;20488;-64
2022/07/11 00:15:34;;;;;;;4.35;2.70;;;15.90;99.90;;;;;;4973695;28;20123;-64
2022/07/11 00:18:00;;;;;;;4.88;2.90;;;15.90;99.90;;;;;;4997509;28;20058;-64
2022/07/11 00:20:26;;;;;;;5.97;2.92;;;15.80;99.90;;;;;;4995394;28;20053;-63
2022/07/11 00:22:52;;;;;;;3.60;2.72;;;15.90;99.90;;;;;;4994488;28;20435;-64
2022/07/11 00:25:18;;;;;;;5.18;2.70;;;15.80;99.90;;;;;;4998406;28;20052;-64
2022/07/11 00:27:44;;;;;;;4.35;2.60;;;15.90;99.90;;;;;;4997515;28;20080;-64
2022/07/11 00:30:10;;;;;;;5.43;2.72;;;15.80;99.90;;;;;;4996318;28;20049;-64
2022/07/11 00:32:36;;;;;;;5.15;2.90;;;15.80;99.90;;;;;;4997247;28;20076;-63
2022/07/11 00:35:02;;;;;;;6.18;2.45;;;15.90;99.90;;;;;;4996672;28;23987;-63
2022/07/11 00:37:28;;;;;;;4.90;2.53;;;15.80;99.90;;;;;;4967686;28;20045;-64
2022/07/11 00:39:54;;;;;;;4.35;2.60;;;15.80;99.90;;;;;;4976239;28;20119;-64
2022/07/11 00:42:20;;;;;;;6.25;2.55;;;15.80;99.90;;;;;;4984560;28;20048;-64
2022/07/11 00:44:46;;;;;;;3.45;2.33;;;15.80;99.90;;;;;;4965771;28;20139;-64
2022/07/11 00:47:11;;;;;;;3.83;2.17;;;15.80;99.90;;;;;;4989890;28;20049;-64
2022/07/11 00:49:37;;;;;;;3.13;2.80;;;15.80;99.90;;;;;;4978218;28;20041;-64
2022/07/11 00:52:03;;;;;;;3.97;2.50;;;15.80;99.90;;;;;;4990640;28;20491;-64
2022/07/11 00:54:30;;;;;;;3.13;2.30;;;15.70;99.90;;;;;;4994125;28;20048;-63
2022/07/11 00:56:57;;;;;;;3.40;2.40;;;15.70;99.90;;;;;;4992621;28;20045;-64
2022/07/11 00:59:22;;;;;;;4.28;2.60;;;15.70;99.90;;;;;;4995468;28;20054;-63
2022/07/11 01:01:48;;;;;;;5.13;2.15;;;15.70;99.90;;;;;;4994505;28;20048;-65
2022/07/11 01:04:14;;;;;;;3.75;2.20;;;15.70;99.90;;;;;;4978665;28;20050;-62
2022/07/11 01:06:40;;;;;;;3.97;2.47;;;15.70;99.90;;;;;;4979344;28;20081;-62
2022/07/11 01:09:06;;;;;;;3.88;2.20;;;15.70;99.90;;;;;;4992434;28;20056;-64
2022/07/11 01:11:31;;;;;;;3.90;2.30;;;15.70;99.90;;;;;;4972515;28;20046;-62
2022/07/11 01:13:58;;;;;;;3.15;2.40;;;15.70;99.90;;;;;;4980298;28;20052;-63
2022/07/11 01:16:24;;;;;;;4.03;2.42;;;15.70;99.90;;;;;;4992274;28;23495;-63
2022/07/11 01:18:52;;;;;;;2.97;2.05;;;15.70;99.90;;;;;;4978342;28;20100;-63
2022/07/11 01:21:26;;;;;;;3.20;2.47;;;15.70;99.90;;;;;;5010457;28;20085;-63
2022/07/11 01:23:54;;;;;;;6.45;2.55;;;15.70;99.90;;;;;;4994173;28;20103;-63
2022/07/11 01:26:22;;;;;;;4.10;2.50;;;15.80;99.90;;;;;;4991244;28;20081;-63
2022/07/11 01:28:48;;;;;;;3.97;2.80;;;15.70;99.90;;;;;;4983171;28;20385;-63
2022/07/11 01:31:15;;;;;;;4.88;2.72;;;15.70;99.90;;;;;;4992279;28;20104;-63
2022/07/11 01:33:41;;;;;;;4.82;2.80;;;15.70;99.90;;;;;;4996876;28;20156;-63
2022/07/11 01:36:07;;;;;;;3.42;2.53;;;15.70;99.90;;;;;;4996118;28;20041;-62
2022/07/11 01:38:33;;;;;;;7.10;3.40;;;15.70;99.90;;;;;;4992929;28;20046;-64
2022/07/11 01:40:59;;;;;;;6.07;2.97;;;15.70;99.90;;;;;;4992683;28;20046;-63
2022/07/11 01:43:25;;;;;;;5.65;3.53;;;15.80;99.90;;;;;;4996264;28;20266;-62
2022/07/11 01:45:52;;;;;;;6.65;2.88;;;15.70;99.90;;;;;;4989644;28;20124;-62
2022/07/11 01:48:18;;;;;;;5.68;3.20;;;15.80;99.90;;;;;;4989702;28;20042;-63
2022/07/11 01:50:45;;;;;;;5.70;3.15;;;15.70;99.90;;;;;;4995784;28;20160;-63
2022/07/11 01:53:10;;;;;;;6.35;2.72;;;15.70;99.90;;;;;;4997366;28;20555;-63
2022/07/11 01:55:36;;;;;;;8.80;3.10;;;15.70;99.90;;;;;;4991167;28;20111;-63
2022/07/11 01:58:02;;;;;;;6.50;2.60;;;15.70;99.90;;;;;;4979413;28;20488;-62
2022/07/11 02:00:28;;;;;;;5.15;2.38;;;15.70;99.90;;;;;;4998618;28;20084;-63
2022/07/11 02:02:54;;;;;;;5.97;2.50;;;15.70;99.90;;;;;;5000912;28;20050;-62
2022/07/11 02:05:20;;;;;;;4.50;2.47;;;15.70;99.90;;;;;;4998637;28;20496;-64
2022/07/11 02:10:30;;;;;;;6.93;2.25;;;15.70;99.90;;;;;;4993680;28;20502;-62
2022/07/11 02:13:00;;;;;;;3.13;2.20;;;15.70;99.90;;;;;;4994597;28;20046;-62
2022/07/11 02:15:30;;;;;;;4.45;2.53;;;15.70;99.90;;;;;;4996354;28;20456;-64
2022/07/11 02:17:56;;;;;;;4.35;2.50;;;15.60;99.90;;;;;;5000110;28;20440;-64
2022/07/11 02:20:24;;;;;;;3.40;2.63;;;15.70;99.90;;;;;;5001022;28;20042;-62
2022/07/11 02:22:51;;;;;;;4.05;2.60;;;15.70;99.90;;;;;;4999673;28;20495;-64
2022/07/11 02:25:18;;;;;;;8.18;2.92;;;15.60;99.90;;;;;;4987255;28;20329;-64
2022/07/11 02:27:44;;;;;;;2.90;2.45;;;15.60;99.90;;;;;;4998656;28;20124;-64
2022/07/11 02:30:10;;;;;;;4.13;2.78;;;15.60;99.90;;;;;;4996931;28;20034;-63
2022/07/11 02:32:37;;;;;;;7.35;3.30;;;15.60;99.90;;;;;;4998835;28;20042;-63
2022/07/11 02:35:04;;;;;;;5.88;2.80;;;15.60;99.90;;;;;;5002992;28;20085;-63
2022/07/11 02:37:30;;;;;;;7.32;3.00;;;15.60;99.90;;;;;;5000948;28;20050;-63
2022/07/11 02:39:55;;;;;;;5.75;2.90;;;15.60;99.90;;;;;;5001364;28;20159;-62
2022/07/11 02:42:21;;;;;;;4.45;2.90;;;15.60;99.90;;;;;;4999626;28;20108;-63
2022/07/11 02:44:47;;;;;;;5.45;2.75;;;15.60;99.90;;;;;;4999584;28;20052;-62
2022/07/11 02:47:15;;;;;;;5.78;3.20;;;15.60;99.90;;;;;;4982654;28;20052;-65
2022/07/11 02:49:42;;;;;;;8.18;2.80;;;15.60;99.90;;;;;;5019451;28;20121;-64
2022/07/11 02:52:08;;;;;;;6.90;2.83;;;15.60;99.90;;;;;;5000171;28;20119;-64
2022/07/11 02:54:34;;;;;;;5.85;3.08;;;15.60;99.90;;;;;;5002343;28;20046;-62
2022/07/11 02:57:00;;;;;;;10.30;3.00;;;15.60;99.90;;;;;;4992109;28;20112;-62
2022/07/11 02:59:27;;;;;;;7.40;3.10;;;15.60;99.90;;;;;;5017906;28;20057;-63
2022/07/11 03:01:53;;;;;;;3.88;2.55;;;15.60;99.90;;;;;;4995242;28;20448;-62
2022/07/11 03:04:19;;;;;;;5.50;2.50;;;15.60;99.90;;;;;;4999008;28;20183;-63
2022/07/11 03:06:45;;;;;;;5.20;2.45;;;15.60;99.90;;;;;;4980555;28;20077;-63
2022/07/11 03:09:11;;;;;;;4.97;2.50;;;15.60;99.90;;;;;;4999082;28;20080;-64
2022/07/11 03:11:37;;;;;;;6.40;2.20;;;15.60;99.90;;;;;;5003008;28;20054;-64
2022/07/11 03:14:03;;;;;;;5.43;2.42;;;15.60;99.90;;;;;;5015135;28;20161;-62
2022/07/11 03:16:30;;;;;;;3.72;1.90;;;15.60;99.90;;;;;;4995644;28;20046;-63
2022/07/11 03:18:56;;;;;;;3.80;1.77;;;15.60;99.90;;;;;;4996685;28;20054;-62
2022/07/11 03:21:23;;;;;;;4.00;1.88;;;15.60;99.90;;;;;;4983264;28;20058;-63
2022/07/11 03:23:49;;;;;;;3.30;1.65;;;15.60;99.90;;;;;;4964810;28;20042;-64
2022/07/11 03:26:16;;;;;;;4.28;2.00;;;15.60;99.90;;;;;;4985043;28;20049;-63
2022/07/11 03:28:42;;;;;;;3.80;2.10;;;15.60;99.90;;;;;;4998585;28;20611;-62
2022/07/11 03:31:08;;;;;;;4.38;1.70;;;15.60;99.90;;;;;;4993562;28;20044;-64
2022/07/11 03:33:34;;;;;;;2.42;1.50;;;15.60;99.90;;;;;;4980437;28;20110;-64
2022/07/11 03:36:00;;;;;;;4.78;1.48;;;15.60;99.90;;;;;;5001199;28;20706;-62
2022/07/11 03:38:26;;;;;;;3.28;1.67;;;15.60;99.90;;;;;;4978646;28;20569;-64
2022/07/11 03:40:51;;;;;;;2.25;1.40;;;15.60;99.90;;;;;;4999731;28;20480;-63
2022/07/11 03:43:17;;;;;;;4.20;1.38;;;15.60;99.90;;;;;;4982259;28;20049;-64
2022/07/11 03:45:43;;;;;;;3.85;1.40;;;15.60;99.90;;;;;;5000896;28;20078;-63
2022/07/11 03:48:10;;;;;;;2.92;1.30;;;15.60;99.90;;;;;;4999451;28;20587;-63
2022/07/11 03:50:36;;;;;;;2.28;1.40;;;15.60;99.90;;;;;;5001483;28;20476;-64
2022/07/11 03:53:02;;;;;;;11.43;1.60;;;15.60;99.90;;;;;;4994856;28;20121;-64
2022/07/11 03:55:28;;;;;;;4.32;1.85;;;15.60;99.90;;;;;;4999423;28;20552;-63
2022/07/11 03:57:55;;;;;;;1.83;1.30;;;15.60;99.90;;;;;;4977976;28;20046;-62
2022/07/11 04:00:21;;;;;;;3.28;1.63;;;15.60;99.90;;;;;;4997935;28;20056;-64
2022/07/11 04:02:47;;;;;;;2.80;1.52;;;15.70;99.90;;;;;;4999743;28;20046;-62
2022/07/11 04:05:13;;;;;;;5.72;1.70;;;15.70;99.90;;;;;;5000812;28;20053;-62
2022/07/11 04:07:41;;;;;;;2.97;1.50;;;15.70;99.90;;;;;;4999701;28;20042;-63
2022/07/11 04:10:08;;;;;;;4.68;1.60;;;15.60;99.90;;;;;;4997479;28;20085;-62
2022/07/11 04:12:34;;;;;;;3.08;1.23;;;15.70;99.90;;;;;;4990235;28;20152;-65
2022/07/11 04:15:00;;;;;;;5.70;1.98;;;15.70;99.90;;;;;;4980696;28;20046;-62
2022/07/11 04:17:26;;;;;;;3.70;1.77;;;15.70;99.90;;;;;;4998815;28;20064;-64
2022/07/11 04:19:53;;;;;;;4.20;1.48;;;15.70;99.90;;;;;;4998712;28;20433;-62
2022/07/11 04:22:19;;;;;;;2.05;1.40;;;15.70;99.90;;;;;;4999083;28;20148;-62
2022/07/11 04:24:45;;;;;;;4.28;1.33;;;15.70;99.90;;;;;;4995813;28;20175;-64
2022/07/11 04:27:10;;;;;;;6.45;1.70;;;15.70;99.90;;;;;;4995079;28;20439;-64
2022/07/11 04:29:36;;;;;;;2.90;1.50;;;15.70;99.90;;;;;;4997120;28;20164;-64
2022/07/11 04:32:03;;;;;;;3.10;1.35;;;15.70;99.90;;;;;;5007312;28;20042;-61
2022/07/11 04:34:28;;;;;;;4.18;1.55;;;15.70;99.90;;;;;;5000418;28;20132;-64
2022/07/11 04:36:54;;;;;;;3.67;1.23;;;15.70;99.90;;;;;;4999605;28;20070;-62
2022/07/11 04:39:20;;;;;;;1.52;1.10;;;15.70;99.90;;;;;;4997851;28;20056;-62
2022/07/11 04:41:46;;;;;;;3.72;1.10;;;15.70;99.90;;;;;;5013918;28;20133;-64
2022/07/11 04:44:11;;;;;;;2.42;1.10;;;15.70;99.90;;;;;;4986324;28;20065;-63
2022/07/11 04:46:38;;;;;;;5.07;1.15;;;15.70;99.90;;;;;;4975569;28;20046;-64
2022/07/11 04:49:04;;;;;;;2.80;0.80;;;15.70;99.90;;;;;;4996928;28;20129;-64
2022/07/11 04:51:29;;;;;;;2.33;0.93;;;15.60;99.90;;;;;;5010850;28;20500;-63
2022/07/11 04:53:55;;;;;;;1.77;0.75;;;15.70;99.90;;;;;;4997565;28;20046;-63
2022/07/11 04:56:21;;;;;;;1.75;0.75;;;15.70;99.90;;;;;;4972644;28;20145;-64
2022/07/11 04:58:47;;;;;;;6.03;0.88;;;15.70;99.90;;;;;;4971817;28;20072;-62
2022/07/11 05:01:13;;;;;;;1.75;0.95;;;15.70;99.90;;;;;;4987309;28;20049;-63
2022/07/11 05:03:39;;;;;;;3.03;0.95;;;15.80;99.90;;;;;;4997087;28;20053;-62
2022/07/11 05:06:06;;;;;;;2.53;0.93;;;15.80;99.90;;;;;;4980208;28;20634;-61
2022/07/11 05:08:36;;;;;;;2.35;0.90;;;15.80;99.90;;;;;;4986012;28;22015;-64
2022/07/11 05:11:05;;;;;;;2.03;0.95;;;15.80;99.90;;;;;;4989112;28;20046;-64
2022/07/11 05:13:31;;;;;;;4.00;1.23;;;15.90;99.90;;;;;;4955080;28;20050;-62
2022/07/11 05:15:57;;;;;;;1.38;0.73;;;15.90;99.90;;;;;;4986387;28;20060;-63
2022/07/11 05:18:22;;;;;;;2.95;0.65;;;15.90;99.90;;;;;;4972634;28;20064;-62
2022/07/11 05:20:48;;;;;;;1.65;0.80;;;15.90;99.90;;;;;;4972775;28;20626;-64
2022/07/11 05:23:15;;;;;;;1.60;0.88;;;15.90;99.90;;;;;;4979167;28;20058;-63
2022/07/11 05:25:41;;;;;;;3.15;1.00;;;16.00;99.90;;;;;;4993679;28;20056;-61
2022/07/11 05:28:07;;;;;;;2.05;0.90;;;16.00;99.90;;;;;;4974784;28;20045;-63
2022/07/11 05:30:32;;;;;;;2.25;0.80;;;16.00;99.90;;;;;;4994632;28;20393;-64
2022/07/11 05:32:58;;;;;;;2.72;0.90;;;16.00;99.90;;;;;;4993088;28;20041;-63
2022/07/11 05:35:25;;;;;;;1.55;0.70;;;16.10;99.90;;;;;;4972080;28;20160;-63
2022/07/11 05:37:51;;;;;;;1.35;0.75;;;16.10;99.90;;;;;;4987640;28;20054;-63
2022/07/11 05:40:17;;;;;;;2.80;0.70;;;16.10;99.90;;;;;;4983644;28;20053;-63
2022/07/11 05:42:42;;;;;;;3.88;0.90;;;16.10;99.90;;;;;;5010187;28;20038;-63
2022/07/11 05:45:09;;;;;;;2.67;0.80;;;16.10;99.90;;;;;;5000759;28;20055;-63
2022/07/11 05:47:35;;;;;;;4.13;0.82;;;16.10;99.90;;;;;;4991878;28;20483;-62
2022/07/11 05:50:01;;;;;;;3.17;1.00;;;16.10;99.90;;;;;;4989072;28;20053;-63
2022/07/11 05:52:26;;;;;;;1.73;1.00;;;16.10;99.90;;;;;;5017308;28;20069;-62
2022/07/11 05:54:52;;;;;;;2.28;0.60;;;16.10;99.90;;;;;;4978381;28;20038;-62
2022/07/11 05:57:18;;;;;;;1.00;0.70;;;16.10;99.90;;;;;;4975013;28;20077;-62
2022/07/11 05:59:45;;;;;;;3.20;0.90;;;16.20;99.90;;;;;;5007209;28;20851;-63
2022/07/11 06:02:11;;;;;;;2.70;0.80;;;16.20;99.90;;;;;;5023844;28;20061;-63
2022/07/11 06:04:37;;;;;;;2.40;1.08;;;16.30;99.90;;;;;;4988706;28;20067;-63
2022/07/11 06:07:04;;;;;;;0.93;0.77;;;16.30;99.90;;;;;;4995954;28;20046;-62
2022/07/11 06:09:29;;;;;;;2.50;1.20;;;16.30;99.90;;;;;;4979415;28;20124;-63
2022/07/11 06:11:56;;;;;;;1.13;0.80;;;16.40;99.90;;;;;;4981924;28;21248;-64
2022/07/11 06:14:23;;;;;;;2.50;1.17;;;16.50;99.90;;;;;;4999786;28;20484;-63
2022/07/11 06:16:49;;;;;;;1.25;0.70;;;16.60;99.90;;;;;;4963784;28;20048;-60
2022/07/11 06:19:16;;;;;;;2.17;1.00;;;16.60;99.90;;;;;;5004035;28;20122;-59
2022/07/11 06:21:42;;;;;;;3.25;1.05;;;16.60;99.90;;;;;;5006632;28;20061;-59
2022/07/11 06:24:08;;;;;;;2.58;0.70;;;16.70;99.90;;;;;;5006787;28;20672;-60
2022/07/11 06:26:34;;;;;;;4.22;0.70;;;16.70;99.90;;;;;;5004993;28;20050;-59
2022/07/11 06:28:59;;;;;;;1.05;0.68;;;16.80;99.90;;;;;;5005984;28;20041;-59
2022/07/11 06:31:25;;;;;;;0.73;0.50;;;16.80;99.90;;;;;;5006229;28;20052;-59
2022/07/11 06:33:57;;;;;;;0.70;0.60;;;16.80;99.90;;;;;;5003756;28;20045;-59
2022/07/11 06:36:26;;;;;;;2.03;0.70;;;16.90;99.90;;;;;;5008582;28;20536;-59
2022/07/11 06:38:53;;;;;;;1.73;0.70;;;16.90;99.90;;;;;;5008159;28;20052;-59
2022/07/11 06:41:19;;;;;;;2.80;0.80;;;17.00;99.90;;;;;;5005606;28;20496;-59
2022/07/11 06:43:47;;;;;;;2.13;0.90;;;17.00;99.90;;;;;;5003550;28;20132;-58
2022/07/11 06:46:15;;;;;;;0.63;0.50;;;17.00;99.90;;;;;;5003974;28;20488;-60
2022/07/11 06:48:41;;;;;;;1.55;0.80;;;16.90;99.90;;;;;;5005542;28;20614;-60
2022/07/11 06:51:07;;;;;;;0.85;0.70;;;16.90;99.90;;;;;;5002201;28;20065;-59
2022/07/11 06:53:33;;;;;;;1.25;0.80;;;16.80;99.90;;;;;;5005752;28;20049;-59
2022/07/11 06:55:59;;;;;;;1.02;0.65;;;16.80;99.90;;;;;;5006655;28;20046;-59
2022/07/11 06:58:34;;;;;;;3.10;0.88;;;16.90;99.90;;;;;;5007809;28;20046;-59
2022/07/11 07:01:01;;;;;;;1.27;0.93;;;16.90;99.90;;;;;;4998137;28;20116;-60
2022/07/11 07:03:28;;;;;;;2.10;0.90;;;16.90;99.90;;;;;;5005186;28;20485;-60
2022/07/11 07:05:55;;;;;;;2.80;1.10;;;17.00;99.90;;;;;;5001008;28;20054;-60
2022/07/11 07:08:26;;;;;;;1.85;0.95;;;17.00;99.90;;;;;;5021599;28;20053;-60
2022/07/11 07:10:52;;;;;;;3.30;0.88;;;17.00;99.90;;;;;;5016595;28;20538;-60
2022/07/11 07:13:20;;;;;;;1.75;0.90;;;17.00;99.90;;;;;;4994854;28;20108;-58
2022/07/11 07:15:46;;;;;;;1.73;0.95;;;17.10;99.90;;;;;;4999344;28;20153;-60
2022/07/11 07:18:12;;;;;;;0.93;0.77;;;17.20;99.90;;;;;;5004686;28;20487;-59
2022/07/11 07:20:38;;;;;;;1.63;0.80;;;17.20;99.90;;;;;;5005051;28;20476;-59
2022/07/11 07:23:04;;;;;;;2.85;0.98;;;17.30;99.90;;;;;;5017146;28;20050;-60
2022/07/11 07:25:29;;;;;;;1.63;0.70;;;17.40;99.90;;;;;;5002137;28;20500;-59
2022/07/11 07:27:55;;;;;;;0.85;0.75;;;17.40;99.90;;;;;;5003452;28;20156;-59
2022/07/11 07:30:21;;;;;;;1.45;0.80;;;17.40;99.90;;;;;;5004099;28;20053;-59
2022/07/11 07:32:47;;;;;;;2.03;0.75;;;17.50;99.90;;;;;;5017214;28;20050;-59
2022/07/11 07:35:13;;;;;;;1.88;0.90;;;17.60;99.90;;;;;;5002835;28;20037;-60
2022/07/11 07:37:39;;;;;;;1.73;0.75;;;17.60;99.90;;;;;;5003138;28;20488;-59
2022/07/11 07:40:05;;;;;;;1.23;0.70;;;17.60;99.90;;;;;;5002616;28;20041;-59
2022/07/11 07:42:31;;;;;;;1.17;0.70;;;17.70;99.90;;;;;;5005204;28;20530;-59
2022/07/11 07:44:57;;;;;;;0.70;0.60;;;17.70;99.90;;;;;;5004394;28;20042;-60
2022/07/11 07:47:23;;;;;;;1.25;0.40;;;17.90;99.90;;;;;;5004123;28;20047;-63
2022/07/11 07:49:48;;;;;;;0.50;0.50;;;17.90;99.90;;;;;;4998515;28;20395;-59
2022/07/11 07:52:14;;;;;;;1.40;0.50;;;18.00;99.90;;;;;;4998992;28;20052;-58
2022/07/11 07:54:41;;;;;;;0.75;0.50;;;18.00;99.90;;;;;;5002260;28;20104;-59
2022/07/11 07:57:07;;;;;;;1.48;0.50;;;18.00;99.90;;;;;;5017557;28;20072;-59
2022/07/11 07:59:33;;;;;;;1.40;0.50;;;18.00;99.90;;;;;;5003131;28;20050;-60
2022/07/11 08:01:58;;;;;;;0.93;0.50;;;18.00;99.90;;;;;;5018223;28;20488;-59
2022/07/11 08:04:24;;;;;;;0.50;0.45;;;18.00;99.90;;;;;;5003533;28;20163;-59
2022/07/11 08:06:50;;;;;;;1.55;0.50;;;18.00;99.90;;;;;;4999834;28;20060;-61
2022/07/11 08:09:16;;;;;;;0.70;0.52;;;18.00;99.90;;;;;;4985361;28;20590;-60
2022/07/11 08:11:42;;;;;;;1.92;0.40;;;18.10;99.90;;;;;;5017507;28;20605;-60
2022/07/11 08:14:08;;;;;;;1.35;0.40;;;18.20;99.90;;;;;;5003478;28;20049;-59
2022/07/11 08:16:34;;;;;;;0.47;0.30;;;18.30;99.90;;;;;;5002396;28;20053;-59
2022/07/11 08:19:03;;;;;;;1.55;0.47;;;18.30;99.90;;;;;;5003773;28;20050;-60
2022/07/11 08:21:29;;;;;;;2.85;0.60;;;18.30;99.90;;;;;;4997337;28;20076;-60
2022/07/11 08:23:57;;;;;;;0.32;0.32;;;18.20;99.90;;;;;;5003170;28;20046;-60
2022/07/11 08:26:22;;;;;;;1.13;0.40;;;18.20;99.90;;;;;;4994168;28;20045;-59
2022/07/11 08:28:48;;;;;;;0.88;0.50;;;18.10;99.90;;;;;;5000590;28;20046;-59
2022/07/11 08:31:14;;;;;;;1.83;0.47;;;18.10;99.90;;;;;;5001365;28;20045;-59
2022/07/11 08:33:40;;;;;;;0.55;0.40;;;18.10;99.90;;;;;;5002115;28;20081;-60
2022/07/11 08:36:07;;;;;;;0.70;0.40;;;18.10;99.90;;;;;;5002362;28;20052;-60
2022/07/11 08:38:33;;;;;;;0.82;0.40;;;18.20;99.90;;;;;;4998884;28;20104;-59
2022/07/11 08:40:59;;;;;;;0.98;0.47;;;18.30;99.90;;;;;;5003520;28;20050;-59
2022/07/11 08:43:29;;;;;;;0.93;0.30;;;18.40;99.90;;;;;;5001239;28;20052;-59
2022/07/11 08:45:56;;;;;;;0.70;0.40;;;18.50;99.90;;;;;;5001254;28;20716;-60
2022/07/11 08:48:23;;;;;;;0.50;0.30;;;18.50;99.90;;;;;;5002610;28;20042;-59
2022/07/11 08:50:50;;;;;;;0.35;0.30;;;18.60;99.90;;;;;;4999340;28;20408;-59
2022/07/11 08:53:16;;;;;;;0.70;0.28;;;18.60;99.90;;;;;;5001478;28;20045;-60
2022/07/11 08:55:43;;;;;;;0.38;0.38;;;18.60;99.90;;;;;;4998017;28;20098;-60
2022/07/11 08:58:09;;;;;;;0.52;0.30;;;18.70;99.90;;;;;;5015565;28;20111;-60
2022/07/11 09:00:36;;;;;;;0.75;0.30;;;18.80;99.90;;;;;;5002305;28;20113;-61
2022/07/11 09:03:03;;;;;;;0.68;0.40;;;18.90;99.90;;;;;;5000829;28;20125;-60
2022/07/11 09:05:31;;;;;;;0.30;0.30;;;19.00;99.90;;;;;;4999347;28;20128;-60
2022/07/11 09:07:57;;;;;;;0.52;0.28;;;19.00;99.90;;;;;;5015544;28;20053;-61
2022/07/11 09:10:24;;;;;;;1.70;0.38;;;19.00;99.90;;;;;;5014818;28;20498;-60
2022/07/11 09:13:04;;;;;;;0.65;0.40;;;18.90;99.90;;;;;;4998971;28;20127;-60
2022/07/11 09:15:44;;;;;;;2.85;0.40;;;19.00;99.90;;;;;;5001975;28;20127;-60
2022/07/11 09:18:25;;;;;;;1.50;0.50;;;18.90;99.90;;;;;;5003301;28;20042;-60
2022/07/11 09:26:39;;;;;;;1.25;0.30;;;18.90;99.90;;;;;;4999463;28;20053;-60
2022/07/11 09:29:06;;;;;;;1.40;0.50;;;18.80;99.90;;;;;;4997016;28;20074;-60
2022/07/11 09:31:33;;;;;;;0.30;0.30;;;18.80;99.90;;;;;;5003108;28;20049;-61
2022/07/11 09:34:02;;;;;;;0.55;0.38;;;18.80;99.90;;;;;;5002109;28;20557;-61
2022/07/11 09:36:57;;;;;;;0.93;0.30;;;18.80;99.90;;;;;;5000992;28;20050;-60
2022/07/11 09:39:24;;;;;;;0.35;0.35;;;18.70;99.90;;;;;;4985414;28;20042;-60
2022/07/11 09:41:51;;;;;;;0.95;0.50;;;18.70;99.90;;;;;;5000299;28;20049;-59
2022/07/11 09:44:19;;;;;;;0.40;0.40;;;18.70;99.90;;;;;;5000406;28;20077;-60
2022/07/11 09:46:51;;;;;;;0.85;0.40;;;18.60;99.90;;;;;;4987645;28;20107;-59
2022/07/11 09:49:34;;;;;;;1.67;0.38;;;18.70;99.90;;;;;;5015676;28;20049;-59
2022/07/11 09:52:09;;;;;;;;;;;18.70;99.90;;;;;;5002409;28;20046;-61
2022/07/11 09:54:59;;;;;;;0.65;0.40;;;18.70;99.90;;;;;;5011960;28;20434;-61
2022/07/11 09:57:33;;;;;;;0.57;0.40;;;18.80;99.90;;;;;;5002207;28;20041;-60
2022/07/11 10:00:00;;;;;;;0.73;0.40;;;18.80;99.90;;;;;;5000069;28;20054;-61
2022/07/11 10:02:26;;;;;;;1.05;0.35;;;18.80;99.90;;;;;;4999929;28;20492;-60
2022/07/11 10:04:52;;;;;;;0.20;0.20;;;18.80;99.90;;;;;;4976621;28;20124;-59
2022/07/11 10:07:18;;;;;;;1.10;0.43;;;18.80;99.90;;;;;;4997200;28;20396;-60
2022/07/11 10:09:44;;;;;;;0.50;0.40;;;18.70;99.90;;;;;;4999495;28;20095;-60
2022/07/11 10:12:10;;;;;;;0.77;0.40;;;18.80;99.90;;;;;;5000607;28;20454;-60
2022/07/11 10:14:37;;;;;;;0.88;0.52;;;18.80;99.90;;;;;;5003201;28;20053;-59
2022/07/11 10:17:23;;;;;;;1.50;0.60;;;18.90;99.90;;;;;;4982375;28;20053;-60
2022/07/11 10:20:26;;;;;;;1.17;0.50;;;18.90;99.90;;;;;;4997693;28;20527;-59
2022/07/11 10:23:00;;;;;;;0.75;0.60;;;18.90;99.90;;;;;;4982513;28;20124;-60
2022/07/11 10:25:29;;;;;;;1.85;0.65;;;18.90;99.90;;;;;;5000292;28;20053;-59
2022/07/11 10:28:26;;;;;;;1.25;0.70;;;18.90;99.90;;;;;;5014693;28;20046;-60
2022/07/11 10:30:59;;;;;;;2.13;0.57;;;18.90;99.90;;;;;;4997178;28;20122;-59
2022/07/11 10:33:27;;;;;;;1.45;0.80;;;18.80;99.90;;;;;;5004212;28;20554;-59
2022/07/11 10:35:53;;;;;;;1.55;0.70;;;18.80;99.90;;;;;;5000571;28;20046;-59
2022/07/11 10:38:21;;;;;;;1.80;0.80;;;18.70;99.90;;;;;;5000930;28;20057;-60
2022/07/11 10:40:51;;;;;;;2.05;1.05;;;18.80;99.90;;;;;;5005451;28;20465;-59
2022/07/11 10:43:38;;;;;;;1.10;0.50;;;18.80;99.90;;;;;;5004250;28;20069;-60
2022/07/11 10:46:09;;;;;;;2.25;0.82;;;18.90;99.90;;;;;;5003292;28;20085;-59
2022/07/11 10:49:12;;;;;;;0.70;0.63;;;18.90;99.90;;;;;;5003829;28;20038;-61
2022/07/11 10:51:52;;;;;;;0.85;0.50;;;19.00;99.90;;;;;;5004523;28;20042;-59
2022/07/11 10:54:39;;;;;;;1.17;0.50;;;19.10;99.90;;;;;;5004637;28;20042;-60
2022/07/11 10:57:17;;;;;;;1.83;0.43;;;19.10;99.90;;;;;;4999636;28;20553;-61
2022/07/11 11:00:02;;;;;;;0.75;0.40;;;19.20;99.90;;;;;;4997387;28;20046;-59
2022/07/11 11:02:29;;;;;;;0.70;0.40;;;19.30;99.90;;;;;;5004588;28;20496;-59
2022/07/11 11:05:00;;;;;;;1.95;0.50;;;19.40;99.90;;;;;;5005526;28;20049;-61
2022/07/11 11:07:31;;;;;;;0.75;0.40;;;19.40;99.90;;;;;;5003802;28;20041;-61
2022/07/11 11:09:58;;;;;;;2.05;0.40;;;19.50;99.90;;;;;;5003730;28;20092;-60
2022/07/11 11:13:09;;;;;;;2.10;0.65;;;19.50;99.90;;;;;;5000942;28;20069;-60
2022/07/11 11:15:39;;;;;;;10.00;0.80;;;19.50;99.90;;;;;;5004676;28;20049;-61
2022/07/11 11:18:26;;;;;;;1.20;0.50;;;19.50;99.90;;;;;;5001840;28;20061;-60
2022/07/11 11:21:06;;;;;;;1.55;0.40;;;19.50;99.90;;;;;;5005027;28;20447;-59
2022/07/11 11:23:33;;;;;;;1.45;0.60;;;19.50;99.90;;;;;;4965138;28;20054;-60
2022/07/11 11:26:12;;;;;;;0.73;0.60;;;19.50;99.90;;;;;;4965544;28;20484;-60
2022/07/11 11:28:55;;;;;;;0.50;0.50;;;19.60;99.90;;;;;;4963377;28;20109;-60
2022/07/11 11:31:21;;;;;;;1.95;0.60;;;19.60;99.90;;;;;;4959908;28;20043;-59
2022/07/11 11:33:48;;;;;;;2.60;0.90;;;19.60;99.90;;;;;;4964112;28;20038;-61
2022/07/11 11:36:17;;;;;;;1.73;0.70;;;19.60;99.90;;;;;;4980463;28;20050;-60
2022/07/11 11:38:44;;;;;;;3.20;0.63;;;19.60;99.90;;;;;;4980628;28;20050;-60
2022/07/11 11:41:12;;;;;;;1.67;0.70;;;19.60;99.90;;;;;;4960958;28;20121;-61
2022/07/11 11:43:47;;;;;;;0.60;0.55;;;19.60;99.90;;;;;;4964713;28;20078;-60
2022/07/11 11:46:13;;;;;;;0.73;0.60;;;19.60;99.90;;;;;;4964475;28;20051;-61
2022/07/11 11:48:46;;;;;;;0.60;0.60;;;19.60;99.90;;;;;;4962408;28;20042;-59
2022/07/11 11:51:14;;;;;;;1.75;0.60;;;19.60;99.90;;;;;;4947893;28;20070;-60
2022/07/11 11:53:48;;;;;;;0.80;0.50;;;19.70;99.90;;;;;;4963421;28;20043;-60
2022/07/11 11:56:15;;;;;;;1.08;0.57;;;19.70;99.90;;;;;;4962245;28;20117;-60
2022/07/11 11:58:45;;;;;;;1.50;0.47;;;19.70;99.90;;;;;;4966135;28;20043;-60
2022/07/11 12:01:12;;;;;;;0.90;0.60;;;19.70;99.90;;;;;;4962057;28;20150;-60
2022/07/11 12:03:55;;;;;;;1.65;0.77;;;19.80;99.90;;;;;;4944954;28;20054;-61
2022/07/11 12:06:26;;;;;;;0.82;0.50;;;19.80;99.90;;;;;;4959953;28;20066;-60
2022/07/11 12:08:58;;;;;;;1.63;0.70;;;19.90;99.90;;;;;;4963002;28;20082;-60
2022/07/11 12:11:24;;;;;;;1.43;0.57;;;19.90;99.90;;;;;;4962730;28;20053;-60
2022/07/11 12:13:59;;;;;;;3.15;0.60;;;20.00;99.90;;;;;;4961927;28;20301;-61
2022/07/11 12:16:46;;;;;;;1.85;0.70;;;20.00;99.90;;;;;;4962370;28;20058;-61
2022/07/11 12:19:18;;;;;;;1.10;0.43;;;20.00;99.90;;;;;;4963876;28;20409;-60
2022/07/11 12:21:46;;;;;;;3.00;0.60;;;20.00;99.90;;;;;;4972175;28;20053;-61
2022/07/11 12:24:16;;;;;;;0.77;0.50;;;20.00;99.90;;;;;;4999314;28;20379;-59
2022/07/11 12:26:43;;;;;;;0.65;0.40;;;20.00;99.90;;;;;;5002206;28;20352;-60
2022/07/11 12:29:12;;;;;;;0.82;0.50;;;19.90;99.90;;;;;;5018653;28;20042;-60
2022/07/11 12:31:51;;;;;;;0.75;0.60;;;19.90;99.90;;;;;;5000666;28;20041;-59
2022/07/11 12:34:24;;;;;;;0.60;0.45;;;19.90;99.90;;;;;;4999858;28;20046;-60
2022/07/11 12:37:01;;;;;;;1.73;0.60;;;19.90;99.90;;;;;;5001634;28;20057;-60
2022/07/11 12:39:29;;;;;;;1.02;0.50;;;20.00;99.90;;;;;;4999301;28;20041;-60
2022/07/11 12:41:58;;;;;;;1.60;0.52;;;20.00;99.90;;;;;;4996504;28;20488;-59
2022/07/11 12:47:10;;;;;;;0.77;0.40;;;20.10;99.90;;;;;;5000348;28;20128;-59
2022/07/11 12:49:36;;;;;;;0.57;0.50;;;20.20;99.90;;;;;;4988992;28;20046;-61
2022/07/11 12:52:02;;;;;;;1.23;0.50;;;20.20;99.90;;;;;;5009058;28;20045;-61
2022/07/11 12:54:33;;;;;;;1.25;0.60;;;20.20;99.90;;;;;;5003116;28;20982;-59
2022/07/11 12:57:03;;;;;;;0.88;0.60;;;20.30;99.90;;;;;;5000761;28;20506;-59
2022/07/11 12:59:33;;;;;;;1.08;0.63;;;20.40;99.90;;;;;;4998509;28;20416;-60
2022/07/11 13:02:05;;;;;;;1.75;0.60;;;20.40;99.90;;;;;;4997509;28;20100;-60
2022/07/11 13:04:51;;;;;;;0.70;0.70;;;20.60;99.90;;;;;;5015267;28;20560;-60